sensor_id;sensor_type;location;lat;lon;timestamp;P1;durP1;ratioP1;P2;durP2;ratioP2
23142;SDS011;11740;51.168;4.112;2022-07-29T00:00:13;4.63;;;3.35;;
23142;SDS011;11740;51.168;4.112;2022-07-29T00:02:40;6.32;;;3.60;;
23142;SDS011;11740;51.168;4.112;2022-07-29T00:05:07;5.05;;;3.53;;
23142;SDS011;11740;51.168;4.112;2022-07-29T00:07:36;5.47;;;3.65;;
23142;SDS011;11740;51.168;4.112;2022-07-29T00:10:03;5.57;;;3.13;;
23142;SDS011;11740;51.168;4.112;2022-07-29T00:12:30;5.70;;;3.22;;
23142;SDS011;11740;51.168;4.112;2022-07-29T00:14:57;6.22;;;3.17;;
23142;SDS011;11740;51.168;4.112;2022-07-29T00:17:24;4.88;;;2.75;;
23142;SDS011;11740;51.168;4.112;2022-07-29T00:19:52;7.18;;;3.00;;
23142;SDS011;11740;51.168;4.112;2022-07-29T00:22:19;5.60;;;2.80;;
23142;SDS011;11740;51.168;4.112;2022-07-29T00:24:47;5.05;;;2.67;;
23142;SDS011;11740;51.168;4.112;2022-07-29T00:27:16;4.88;;;2.50;;
23142;SDS011;11740;51.168;4.112;2022-07-29T00:29:44;4.35;;;2.38;;
23142;SDS011;11740;51.168;4.112;2022-07-29T00:32:11;4.05;;;2.15;;
23142;SDS011;11740;51.168;4.112;2022-07-29T00:34:38;8.10;;;2.38;;
23142;SDS011;11740;51.168;4.112;2022-07-29T00:37:24;3.88;;;2.20;;
23142;SDS011;11740;51.168;4.112;2022-07-29T00:39:51;3.78;;;2.20;;
23142;SDS011;11740;51.168;4.112;2022-07-29T00:42:18;3.15;;;1.60;;
23142;SDS011;11740;51.168;4.112;2022-07-29T00:44:46;4.55;;;1.63;;
23142;SDS011;11740;51.168;4.112;2022-07-29T00:47:13;3.80;;;1.90;;
23142;SDS011;11740;51.168;4.112;2022-07-29T00:49:41;3.83;;;2.00;;
23142;SDS011;11740;51.168;4.112;2022-07-29T00:52:09;4.35;;;1.60;;
23142;SDS011;11740;51.168;4.112;2022-07-29T00:54:37;3.75;;;1.73;;
23142;SDS011;11740;51.168;4.112;2022-07-29T00:57:10;4.55;;;1.80;;
23142;SDS011;11740;51.168;4.112;2022-07-29T00:59:39;3.55;;;1.80;;
23142;SDS011;11740;51.168;4.112;2022-07-29T01:02:06;3.63;;;1.98;;
23142;SDS011;11740;51.168;4.112;2022-07-29T01:04:33;2.65;;;1.67;;
23142;SDS011;11740;51.168;4.112;2022-07-29T01:07:01;3.20;;;1.90;;
23142;SDS011;11740;51.168;4.112;2022-07-29T01:09:29;4.97;;;1.80;;
23142;SDS011;11740;51.168;4.112;2022-07-29T01:12:17;5.00;;;1.75;;
23142;SDS011;11740;51.168;4.112;2022-07-29T01:14:49;2.90;;;1.60;;
23142;SDS011;11740;51.168;4.112;2022-07-29T01:17:20;7.18;;;2.00;;
23142;SDS011;11740;51.168;4.112;2022-07-29T01:22:28;3.00;;;1.73;;
23142;SDS011;11740;51.168;4.112;2022-07-29T01:25:03;3.45;;;1.70;;
23142;SDS011;11740;51.168;4.112;2022-07-29T01:27:44;4.47;;;1.77;;
23142;SDS011;11740;51.168;4.112;2022-07-29T01:30:30;5.13;;;1.83;;
23142;SDS011;11740;51.168;4.112;2022-07-29T01:33:06;4.88;;;1.70;;
23142;SDS011;11740;51.168;4.112;2022-07-29T01:35:57;3.92;;;1.60;;
23142;SDS011;11740;51.168;4.112;2022-07-29T01:38:28;3.90;;;1.63;;
23142;SDS011;11740;51.168;4.112;2022-07-29T01:41:01;3.75;;;1.98;;
23142;SDS011;11740;51.168;4.112;2022-07-29T01:43:34;5.10;;;1.90;;
23142;SDS011;11740;51.168;4.112;2022-07-29T01:46:14;4.30;;;1.45;;
23142;SDS011;11740;51.168;4.112;2022-07-29T01:48:49;4.10;;;1.80;;
23142;SDS011;11740;51.168;4.112;2022-07-29T01:51:35;5.45;;;1.63;;
23142;SDS011;11740;51.168;4.112;2022-07-29T01:54:12;4.63;;;1.90;;
23142;SDS011;11740;51.168;4.112;2022-07-29T01:56:45;6.88;;;1.98;;
23142;SDS011;11740;51.168;4.112;2022-07-29T01:59:16;2.85;;;1.63;;
23142;SDS011;11740;51.168;4.112;2022-07-29T02:01:46;3.53;;;1.65;;
23142;SDS011;11740;51.168;4.112;2022-07-29T02:04:20;4.35;;;1.60;;
23142;SDS011;11740;51.168;4.112;2022-07-29T02:06:55;3.78;;;1.90;;
23142;SDS011;11740;51.168;4.112;2022-07-29T02:09:28;2.83;;;1.60;;
23142;SDS011;11740;51.168;4.112;2022-07-29T02:11:58;2.75;;;1.50;;
23142;SDS011;11740;51.168;4.112;2022-07-29T02:14:28;3.22;;;1.60;;
23142;SDS011;11740;51.168;4.112;2022-07-29T02:17:03;3.90;;;1.58;;
23142;SDS011;11740;51.168;4.112;2022-07-29T02:19:32;2.88;;;1.60;;
23142;SDS011;11740;51.168;4.112;2022-07-29T02:22:00;3.92;;;1.38;;
23142;SDS011;11740;51.168;4.112;2022-07-29T02:24:28;3.92;;;1.55;;
23142;SDS011;11740;51.168;4.112;2022-07-29T02:26:57;4.97;;;1.45;;
23142;SDS011;11740;51.168;4.112;2022-07-29T02:29:27;3.08;;;1.60;;
23142;SDS011;11740;51.168;4.112;2022-07-29T02:31:56;3.50;;;1.33;;
23142;SDS011;11740;51.168;4.112;2022-07-29T02:34:25;4.13;;;1.40;;
23142;SDS011;11740;51.168;4.112;2022-07-29T02:36:54;2.55;;;1.38;;
23142;SDS011;11740;51.168;4.112;2022-07-29T02:39:22;5.47;;;1.60;;
23142;SDS011;11740;51.168;4.112;2022-07-29T02:41:52;3.05;;;1.50;;
23142;SDS011;11740;51.168;4.112;2022-07-29T02:44:25;4.30;;;1.40;;
23142;SDS011;11740;51.168;4.112;2022-07-29T02:52:54;2.42;;;1.30;;
23142;SDS011;11740;51.168;4.112;2022-07-29T02:58:45;2.92;;;1.50;;
23142;SDS011;11740;51.168;4.112;2022-07-29T03:01:23;1.65;;;1.10;;
23142;SDS011;11740;51.168;4.112;2022-07-29T03:03:54;2.15;;;1.10;;
23142;SDS011;11740;51.168;4.112;2022-07-29T03:06:23;2.03;;;1.30;;
23142;SDS011;11740;51.168;4.112;2022-07-29T03:09:03;2.58;;;1.38;;
23142;SDS011;11740;51.168;4.112;2022-07-29T03:11:38;3.83;;;1.60;;
23142;SDS011;11740;51.168;4.112;2022-07-29T03:14:18;2.13;;;1.25;;
23142;SDS011;11740;51.168;4.112;2022-07-29T03:16:47;3.65;;;1.20;;
23142;SDS011;11740;51.168;4.112;2022-07-29T03:19:16;3.90;;;1.48;;
23142;SDS011;11740;51.168;4.112;2022-07-29T03:21:44;2.38;;;1.30;;
23142;SDS011;11740;51.168;4.112;2022-07-29T03:24:23;5.57;;;1.65;;
23142;SDS011;11740;51.168;4.112;2022-07-29T03:26:53;3.80;;;1.48;;
23142;SDS011;11740;51.168;4.112;2022-07-29T03:29:22;3.20;;;1.40;;
23142;SDS011;11740;51.168;4.112;2022-07-29T03:31:58;7.65;;;1.80;;
23142;SDS011;11740;51.168;4.112;2022-07-29T03:34:27;7.10;;;2.05;;
23142;SDS011;11740;51.168;4.112;2022-07-29T03:36:54;5.57;;;1.80;;
23142;SDS011;11740;51.168;4.112;2022-07-29T03:39:22;2.78;;;1.52;;
23142;SDS011;11740;51.168;4.112;2022-07-29T03:41:53;5.15;;;1.52;;
23142;SDS011;11740;51.168;4.112;2022-07-29T03:44:23;4.35;;;1.90;;
23142;SDS011;11740;51.168;4.112;2022-07-29T03:46:54;3.50;;;1.20;;
23142;SDS011;11740;51.168;4.112;2022-07-29T03:49:24;3.90;;;1.40;;
23142;SDS011;11740;51.168;4.112;2022-07-29T03:51:53;1.45;;;1.17;;
23142;SDS011;11740;51.168;4.112;2022-07-29T03:54:20;4.82;;;1.40;;
23142;SDS011;11740;51.168;4.112;2022-07-29T03:56:48;4.75;;;1.42;;
23142;SDS011;11740;51.168;4.112;2022-07-29T03:59:18;3.63;;;1.60;;
23142;SDS011;11740;51.168;4.112;2022-07-29T04:01:48;4.68;;;1.65;;
23142;SDS011;11740;51.168;4.112;2022-07-29T04:04:16;1.90;;;1.30;;
23142;SDS011;11740;51.168;4.112;2022-07-29T04:06:45;4.25;;;1.70;;
23142;SDS011;11740;51.168;4.112;2022-07-29T04:09:13;2.78;;;1.63;;
23142;SDS011;11740;51.168;4.112;2022-07-29T04:11:41;3.83;;;2.00;;
23142;SDS011;11740;51.168;4.112;2022-07-29T04:14:29;4.28;;;1.80;;
23142;SDS011;11740;51.168;4.112;2022-07-29T04:17:03;3.67;;;1.70;;
23142;SDS011;11740;51.168;4.112;2022-07-29T04:19:31;3.63;;;1.70;;
23142;SDS011;11740;51.168;4.112;2022-07-29T04:21:59;4.28;;;1.73;;
23142;SDS011;11740;51.168;4.112;2022-07-29T04:24:27;2.42;;;1.70;;
23142;SDS011;11740;51.168;4.112;2022-07-29T04:26:54;6.72;;;1.73;;
23142;SDS011;11740;51.168;4.112;2022-07-29T04:29:21;3.10;;;1.90;;
23142;SDS011;11740;51.168;4.112;2022-07-29T04:31:48;7.10;;;1.80;;
23142;SDS011;11740;51.168;4.112;2022-07-29T04:34:15;3.65;;;1.80;;
23142;SDS011;11740;51.168;4.112;2022-07-29T04:36:43;4.93;;;1.85;;
23142;SDS011;11740;51.168;4.112;2022-07-29T04:39:10;4.07;;;1.90;;
23142;SDS011;11740;51.168;4.112;2022-07-29T04:41:37;6.10;;;1.88;;
23142;SDS011;11740;51.168;4.112;2022-07-29T04:44:05;5.32;;;2.20;;
23142;SDS011;11740;51.168;4.112;2022-07-29T04:46:34;3.38;;;1.88;;
23142;SDS011;11740;51.168;4.112;2022-07-29T04:49:02;5.53;;;1.85;;
23142;SDS011;11740;51.168;4.112;2022-07-29T04:51:29;2.63;;;1.70;;
23142;SDS011;11740;51.168;4.112;2022-07-29T04:53:57;4.18;;;1.83;;
23142;SDS011;11740;51.168;4.112;2022-07-29T04:56:24;2.55;;;1.80;;
23142;SDS011;11740;51.168;4.112;2022-07-29T04:58:51;4.20;;;2.03;;
23142;SDS011;11740;51.168;4.112;2022-07-29T05:01:19;4.32;;;1.83;;
23142;SDS011;11740;51.168;4.112;2022-07-29T05:03:46;4.47;;;2.00;;
23142;SDS011;11740;51.168;4.112;2022-07-29T05:06:13;4.80;;;2.08;;
23142;SDS011;11740;51.168;4.112;2022-07-29T05:08:40;6.85;;;2.08;;
23142;SDS011;11740;51.168;4.112;2022-07-29T05:11:07;5.75;;;1.90;;
23142;SDS011;11740;51.168;4.112;2022-07-29T05:13:37;3.40;;;2.00;;
23142;SDS011;11740;51.168;4.112;2022-07-29T05:16:11;4.80;;;1.90;;
23142;SDS011;11740;51.168;4.112;2022-07-29T05:18:39;5.45;;;2.28;;
23142;SDS011;11740;51.168;4.112;2022-07-29T05:21:07;2.40;;;1.70;;
23142;SDS011;11740;51.168;4.112;2022-07-29T05:23:34;4.82;;;2.00;;
23142;SDS011;11740;51.168;4.112;2022-07-29T05:26:03;4.88;;;2.15;;
23142;SDS011;11740;51.168;4.112;2022-07-29T05:28:34;6.82;;;2.30;;
23142;SDS011;11740;51.168;4.112;2022-07-29T05:31:01;2.58;;;1.83;;
23142;SDS011;11740;51.168;4.112;2022-07-29T05:33:28;3.38;;;2.10;;
23142;SDS011;11740;51.168;4.112;2022-07-29T05:36:01;6.03;;;2.30;;
23142;SDS011;11740;51.168;4.112;2022-07-29T05:38:31;3.97;;;2.00;;
23142;SDS011;11740;51.168;4.112;2022-07-29T05:40:59;4.78;;;2.00;;
23142;SDS011;11740;51.168;4.112;2022-07-29T05:43:27;5.60;;;2.25;;
23142;SDS011;11740;51.168;4.112;2022-07-29T05:45:55;3.30;;;2.08;;
23142;SDS011;11740;51.168;4.112;2022-07-29T05:48:23;3.72;;;2.15;;
23142;SDS011;11740;51.168;4.112;2022-07-29T05:50:50;2.30;;;1.77;;
23142;SDS011;11740;51.168;4.112;2022-07-29T05:53:17;4.82;;;2.10;;
23142;SDS011;11740;51.168;4.112;2022-07-29T05:55:46;2.88;;;1.90;;
23142;SDS011;11740;51.168;4.112;2022-07-29T05:58:14;3.05;;;2.00;;
23142;SDS011;11740;51.168;4.112;2022-07-29T06:00:41;3.58;;;2.08;;
23142;SDS011;11740;51.168;4.112;2022-07-29T06:03:08;3.78;;;2.10;;
23142;SDS011;11740;51.168;4.112;2022-07-29T06:05:36;3.00;;;1.83;;
23142;SDS011;11740;51.168;4.112;2022-07-29T06:08:03;6.13;;;2.17;;
23142;SDS011;11740;51.168;4.112;2022-07-29T06:10:34;4.13;;;2.22;;
23142;SDS011;11740;51.168;4.112;2022-07-29T06:13:02;3.45;;;2.13;;
23142;SDS011;11740;51.168;4.112;2022-07-29T06:15:29;2.60;;;1.90;;
23142;SDS011;11740;51.168;4.112;2022-07-29T06:17:56;5.57;;;2.20;;
23142;SDS011;11740;51.168;4.112;2022-07-29T06:20:30;6.40;;;2.65;;
23142;SDS011;11740;51.168;4.112;2022-07-29T06:22:58;5.28;;;2.35;;
23142;SDS011;11740;51.168;4.112;2022-07-29T06:25:26;3.63;;;1.98;;
23142;SDS011;11740;51.168;4.112;2022-07-29T06:27:57;5.70;;;2.28;;
23142;SDS011;11740;51.168;4.112;2022-07-29T06:30:24;5.10;;;2.47;;
23142;SDS011;11740;51.168;4.112;2022-07-29T06:32:51;7.10;;;2.78;;
23142;SDS011;11740;51.168;4.112;2022-07-29T06:35:18;5.10;;;2.60;;
23142;SDS011;11740;51.168;4.112;2022-07-29T06:38:05;6.80;;;2.40;;
23142;SDS011;11740;51.168;4.112;2022-07-29T06:40:52;5.97;;;2.80;;
23142;SDS011;11740;51.168;4.112;2022-07-29T06:43:33;7.88;;;2.50;;
23142;SDS011;11740;51.168;4.112;2022-07-29T06:46:16;6.00;;;2.72;;
23142;SDS011;11740;51.168;4.112;2022-07-29T06:48:45;6.97;;;2.65;;
23142;SDS011;11740;51.168;4.112;2022-07-29T06:51:14;5.68;;;2.63;;
23142;SDS011;11740;51.168;4.112;2022-07-29T06:53:41;4.88;;;2.42;;
23142;SDS011;11740;51.168;4.112;2022-07-29T06:56:28;5.75;;;3.03;;
23142;SDS011;11740;51.168;4.112;2022-07-29T06:59:05;6.07;;;2.80;;
23142;SDS011;11740;51.168;4.112;2022-07-29T07:01:34;3.38;;;2.47;;
23142;SDS011;11740;51.168;4.112;2022-07-29T07:04:06;4.93;;;2.72;;
23142;SDS011;11740;51.168;4.112;2022-07-29T07:06:35;4.65;;;2.60;;
23142;SDS011;11740;51.168;4.112;2022-07-29T07:09:03;6.10;;;2.60;;
23142;SDS011;11740;51.168;4.112;2022-07-29T07:11:30;9.05;;;3.20;;
23142;SDS011;11740;51.168;4.112;2022-07-29T07:13:58;3.97;;;2.60;;
23142;SDS011;11740;51.168;4.112;2022-07-29T07:16:29;8.07;;;2.80;;
23142;SDS011;11740;51.168;4.112;2022-07-29T07:18:57;6.70;;;3.33;;
23142;SDS011;11740;51.168;4.112;2022-07-29T07:21:24;10.02;;;3.00;;
23142;SDS011;11740;51.168;4.112;2022-07-29T07:23:55;5.38;;;3.00;;
23142;SDS011;11740;51.168;4.112;2022-07-29T07:26:22;10.27;;;3.30;;
23142;SDS011;11740;51.168;4.112;2022-07-29T07:28:49;5.80;;;2.97;;
23142;SDS011;11740;51.168;4.112;2022-07-29T07:31:16;6.50;;;3.40;;
23142;SDS011;11740;51.168;4.112;2022-07-29T07:33:43;4.88;;;2.85;;
23142;SDS011;11740;51.168;4.112;2022-07-29T07:36:11;13.32;;;3.50;;
23142;SDS011;11740;51.168;4.112;2022-07-29T07:38:38;7.38;;;2.83;;
23142;SDS011;11740;51.168;4.112;2022-07-29T07:41:05;9.85;;;3.90;;
23142;SDS011;11740;51.168;4.112;2022-07-29T07:43:32;7.43;;;3.03;;
23142;SDS011;11740;51.168;4.112;2022-07-29T07:45:59;6.55;;;3.80;;
23142;SDS011;11740;51.168;4.112;2022-07-29T07:48:26;7.68;;;3.60;;
23142;SDS011;11740;51.168;4.112;2022-07-29T07:50:53;6.43;;;3.53;;
23142;SDS011;11740;51.168;4.112;2022-07-29T07:53:20;6.07;;;3.30;;
23142;SDS011;11740;51.168;4.112;2022-07-29T07:55:48;4.82;;;3.53;;
23142;SDS011;11740;51.168;4.112;2022-07-29T07:58:34;5.10;;;3.30;;
23142;SDS011;11740;51.168;4.112;2022-07-29T08:01:02;7.43;;;3.63;;
23142;SDS011;11740;51.168;4.112;2022-07-29T08:03:29;5.07;;;3.22;;
23142;SDS011;11740;51.168;4.112;2022-07-29T08:05:56;6.20;;;3.47;;
23142;SDS011;11740;51.168;4.112;2022-07-29T08:08:23;5.93;;;3.72;;
23142;SDS011;11740;51.168;4.112;2022-07-29T08:10:50;6.95;;;3.20;;
23142;SDS011;11740;51.168;4.112;2022-07-29T08:13:23;12.73;;;3.88;;
23142;SDS011;11740;51.168;4.112;2022-07-29T08:15:54;8.32;;;3.05;;
23142;SDS011;11740;51.168;4.112;2022-07-29T08:18:27;6.03;;;3.28;;
23142;SDS011;11740;51.168;4.112;2022-07-29T08:20:55;3.95;;;3.05;;
23142;SDS011;11740;51.168;4.112;2022-07-29T08:23:23;4.10;;;2.90;;
23142;SDS011;11740;51.168;4.112;2022-07-29T08:25:50;4.72;;;2.63;;
23142;SDS011;11740;51.168;4.112;2022-07-29T08:28:20;3.78;;;3.00;;
23142;SDS011;11740;51.168;4.112;2022-07-29T08:30:51;10.38;;;3.47;;
23142;SDS011;11740;51.168;4.112;2022-07-29T08:33:18;6.25;;;3.08;;
23142;SDS011;11740;51.168;4.112;2022-07-29T08:35:45;5.85;;;3.47;;
23142;SDS011;11740;51.168;4.112;2022-07-29T08:38:12;5.55;;;3.00;;
23142;SDS011;11740;51.168;4.112;2022-07-29T08:40:39;7.30;;;2.80;;
23142;SDS011;11740;51.168;4.112;2022-07-29T08:43:06;5.65;;;2.47;;
23142;SDS011;11740;51.168;4.112;2022-07-29T08:45:45;4.55;;;2.30;;
23142;SDS011;11740;51.168;4.112;2022-07-29T08:48:21;8.93;;;3.20;;
23142;SDS011;11740;51.168;4.112;2022-07-29T08:50:52;5.55;;;2.30;;
23142;SDS011;11740;51.168;4.112;2022-07-29T08:53:24;6.07;;;2.50;;
23142;SDS011;11740;51.168;4.112;2022-07-29T08:55:53;3.65;;;2.30;;
23142;SDS011;11740;51.168;4.112;2022-07-29T08:58:21;4.93;;;2.03;;
23142;SDS011;11740;51.168;4.112;2022-07-29T09:00:55;5.18;;;2.05;;
23142;SDS011;11740;51.168;4.112;2022-07-29T09:03:23;6.70;;;2.10;;
23142;SDS011;11740;51.168;4.112;2022-07-29T09:05:57;4.10;;;1.95;;
23142;SDS011;11740;51.168;4.112;2022-07-29T09:08:25;5.80;;;2.17;;
23142;SDS011;11740;51.168;4.112;2022-07-29T09:10:53;8.63;;;2.30;;
23142;SDS011;11740;51.168;4.112;2022-07-29T09:13:25;4.70;;;2.15;;
23142;SDS011;11740;51.168;4.112;2022-07-29T09:15:52;4.50;;;2.05;;
23142;SDS011;11740;51.168;4.112;2022-07-29T09:18:39;3.13;;;1.98;;
23142;SDS011;11740;51.168;4.112;2022-07-29T09:21:12;4.25;;;1.80;;
23142;SDS011;11740;51.168;4.112;2022-07-29T09:24:02;6.78;;;1.67;;
23142;SDS011;11740;51.168;4.112;2022-07-29T09:26:39;4.45;;;1.90;;
23142;SDS011;11740;51.168;4.112;2022-07-29T09:29:12;5.97;;;1.65;;
23142;SDS011;11740;51.168;4.112;2022-07-29T09:31:49;4.32;;;1.77;;
23142;SDS011;11740;51.168;4.112;2022-07-29T09:34:22;3.80;;;1.55;;
23142;SDS011;11740;51.168;4.112;2022-07-29T09:36:54;6.68;;;1.63;;
23142;SDS011;11740;51.168;4.112;2022-07-29T09:39:29;3.95;;;1.80;;
23142;SDS011;11740;51.168;4.112;2022-07-29T09:41:59;4.93;;;1.70;;
23142;SDS011;11740;51.168;4.112;2022-07-29T09:44:48;2.55;;;1.63;;
23142;SDS011;11740;51.168;4.112;2022-07-29T09:47:17;3.33;;;1.50;;
23142;SDS011;11740;51.168;4.112;2022-07-29T09:49:55;5.28;;;1.63;;
23142;SDS011;11740;51.168;4.112;2022-07-29T09:52:26;4.60;;;1.60;;
23142;SDS011;11740;51.168;4.112;2022-07-29T09:55:05;4.35;;;1.73;;
23142;SDS011;11740;51.168;4.112;2022-07-29T09:57:34;3.85;;;1.70;;
23142;SDS011;11740;51.168;4.112;2022-07-29T10:00:08;4.85;;;1.67;;
23142;SDS011;11740;51.168;4.112;2022-07-29T10:02:42;5.57;;;1.85;;
23142;SDS011;11740;51.168;4.112;2022-07-29T10:05:19;7.20;;;1.73;;
23142;SDS011;11740;51.168;4.112;2022-07-29T10:08:02;6.80;;;2.10;;
23142;SDS011;11740;51.168;4.112;2022-07-29T10:10:30;7.38;;;2.20;;
23142;SDS011;11740;51.168;4.112;2022-07-29T10:13:01;5.70;;;1.90;;
23142;SDS011;11740;51.168;4.112;2022-07-29T10:15:42;3.67;;;1.92;;
23142;SDS011;11740;51.168;4.112;2022-07-29T10:18:12;5.00;;;2.00;;
23142;SDS011;11740;51.168;4.112;2022-07-29T10:20:43;4.05;;;1.80;;
23142;SDS011;11740;51.168;4.112;2022-07-29T10:23:11;5.22;;;2.05;;
23142;SDS011;11740;51.168;4.112;2022-07-29T10:25:38;6.07;;;1.65;;
23142;SDS011;11740;51.168;4.112;2022-07-29T10:28:11;3.53;;;1.55;;
23142;SDS011;11740;51.168;4.112;2022-07-29T10:30:42;5.03;;;1.58;;
23142;SDS011;11740;51.168;4.112;2022-07-29T10:33:15;5.18;;;1.75;;
23142;SDS011;11740;51.168;4.112;2022-07-29T10:44:45;4.82;;;1.90;;
23142;SDS011;11740;51.168;4.112;2022-07-29T10:47:22;4.03;;;1.70;;
23142;SDS011;11740;51.168;4.112;2022-07-29T10:49:56;6.95;;;1.52;;
23142;SDS011;11740;51.168;4.112;2022-07-29T10:55:31;2.17;;;1.42;;
23142;SDS011;11740;51.168;4.112;2022-07-29T11:03:58;5.88;;;1.45;;
23142;SDS011;11740;51.168;4.112;2022-07-29T11:06:23;2.58;;;1.55;;
23142;SDS011;11740;51.168;4.112;2022-07-29T11:09:16;4.32;;;1.40;;
23142;SDS011;11740;51.168;4.112;2022-07-29T11:12:03;4.75;;;1.67;;
23142;SDS011;11740;51.168;4.112;2022-07-29T11:17:18;5.05;;;1.50;;
23142;SDS011;11740;51.168;4.112;2022-07-29T11:19:46;4.65;;;1.45;;
23142;SDS011;11740;51.168;4.112;2022-07-29T11:22:34;6.75;;;1.60;;
23142;SDS011;11740;51.168;4.112;2022-07-29T11:25:13;3.45;;;1.23;;
23142;SDS011;11740;51.168;4.112;2022-07-29T11:27:42;3.15;;;1.40;;
23142;SDS011;11740;51.168;4.112;2022-07-29T11:30:11;4.47;;;1.55;;
23142;SDS011;11740;51.168;4.112;2022-07-29T11:32:40;7.30;;;1.50;;
23142;SDS011;11740;51.168;4.112;2022-07-29T11:35:20;4.07;;;1.52;;
23142;SDS011;11740;51.168;4.112;2022-07-29T11:43:57;3.08;;;1.50;;
23142;SDS011;11740;51.168;4.112;2022-07-29T11:49:19;3.45;;;1.52;;
23142;SDS011;11740;51.168;4.112;2022-07-29T11:51:58;3.70;;;1.50;;
23142;SDS011;11740;51.168;4.112;2022-07-29T11:54:30;3.63;;;1.65;;
23142;SDS011;11740;51.168;4.112;2022-07-29T11:57:20;6.53;;;1.60;;
23142;SDS011;11740;51.168;4.112;2022-07-29T11:59:47;5.93;;;1.65;;
23142;SDS011;11740;51.168;4.112;2022-07-29T12:02:16;5.38;;;1.63;;
23142;SDS011;11740;51.168;4.112;2022-07-29T12:05:03;6.55;;;1.90;;
23142;SDS011;11740;51.168;4.112;2022-07-29T12:07:36;5.05;;;1.58;;
23142;SDS011;11740;51.168;4.112;2022-07-29T12:10:06;4.43;;;1.45;;
23142;SDS011;11740;51.168;4.112;2022-07-29T12:12:44;3.83;;;1.60;;
23142;SDS011;11740;51.168;4.112;2022-07-29T12:15:19;4.95;;;1.70;;
23142;SDS011;11740;51.168;4.112;2022-07-29T12:17:47;7.95;;;2.00;;
23142;SDS011;11740;51.168;4.112;2022-07-29T12:20:27;6.65;;;2.10;;
23142;SDS011;11740;51.168;4.112;2022-07-29T12:22:55;8.27;;;1.67;;
23142;SDS011;11740;51.168;4.112;2022-07-29T12:25:23;5.97;;;1.90;;
23142;SDS011;11740;51.168;4.112;2022-07-29T12:28:00;4.65;;;1.85;;
23142;SDS011;11740;51.168;4.112;2022-07-29T12:30:36;4.28;;;1.52;;
23142;SDS011;11740;51.168;4.112;2022-07-29T12:33:20;4.40;;;1.50;;
23142;SDS011;11740;51.168;4.112;2022-07-29T12:35:54;4.38;;;1.88;;
23142;SDS011;11740;51.168;4.112;2022-07-29T12:38:36;3.88;;;1.88;;
23142;SDS011;11740;51.168;4.112;2022-07-29T12:41:06;4.30;;;1.83;;
23142;SDS011;11740;51.168;4.112;2022-07-29T12:43:33;5.10;;;1.60;;
23142;SDS011;11740;51.168;4.112;2022-07-29T12:46:22;4.97;;;1.92;;
23142;SDS011;11740;51.168;4.112;2022-07-29T12:48:53;5.18;;;2.10;;
23142;SDS011;11740;51.168;4.112;2022-07-29T12:51:37;6.32;;;2.10;;
23142;SDS011;11740;51.168;4.112;2022-07-29T12:54:09;4.55;;;2.28;;
23142;SDS011;11740;51.168;4.112;2022-07-29T12:56:41;7.13;;;2.10;;
23142;SDS011;11740;51.168;4.112;2022-07-29T12:59:20;3.95;;;1.92;;
23142;SDS011;11740;51.168;4.112;2022-07-29T13:01:49;5.72;;;2.00;;
23142;SDS011;11740;51.168;4.112;2022-07-29T13:04:28;3.78;;;1.88;;
23142;SDS011;11740;51.168;4.112;2022-07-29T13:07:04;4.90;;;1.60;;
23142;SDS011;11740;51.168;4.112;2022-07-29T13:09:42;6.28;;;1.60;;
23142;SDS011;11740;51.168;4.112;2022-07-29T13:12:12;5.82;;;1.70;;
23142;SDS011;11740;51.168;4.112;2022-07-29T13:14:46;4.65;;;1.70;;
23142;SDS011;11740;51.168;4.112;2022-07-29T13:17:15;6.00;;;1.50;;
23142;SDS011;11740;51.168;4.112;2022-07-29T13:19:48;3.92;;;1.70;;
23142;SDS011;11740;51.168;4.112;2022-07-29T13:22:24;4.73;;;1.60;;
23142;SDS011;11740;51.168;4.112;2022-07-29T13:24:52;3.38;;;1.60;;
23142;SDS011;11740;51.168;4.112;2022-07-29T13:27:21;2.92;;;1.58;;
23142;SDS011;11740;51.168;4.112;2022-07-29T13:29:51;3.63;;;1.48;;
23142;SDS011;11740;51.168;4.112;2022-07-29T13:32:19;4.75;;;1.50;;
23142;SDS011;11740;51.168;4.112;2022-07-29T13:34:57;4.43;;;1.85;;
23142;SDS011;11740;51.168;4.112;2022-07-29T13:37:31;7.15;;;2.00;;
23142;SDS011;11740;51.168;4.112;2022-07-29T13:40:01;4.43;;;1.73;;
23142;SDS011;11740;51.168;4.112;2022-07-29T13:42:31;4.10;;;1.70;;
23142;SDS011;11740;51.168;4.112;2022-07-29T13:44:58;4.82;;;1.77;;
23142;SDS011;11740;51.168;4.112;2022-07-29T13:47:26;4.30;;;1.83;;
23142;SDS011;11740;51.168;4.112;2022-07-29T13:49:58;2.88;;;1.65;;
23142;SDS011;11740;51.168;4.112;2022-07-29T13:52:27;5.20;;;1.83;;
23142;SDS011;11740;51.168;4.112;2022-07-29T13:54:54;6.40;;;1.88;;
23142;SDS011;11740;51.168;4.112;2022-07-29T13:57:22;6.32;;;1.70;;
23142;SDS011;11740;51.168;4.112;2022-07-29T13:59:49;4.65;;;2.10;;
23142;SDS011;11740;51.168;4.112;2022-07-29T14:02:19;4.88;;;2.03;;
23142;SDS011;11740;51.168;4.112;2022-07-29T14:04:51;5.68;;;1.88;;
23142;SDS011;11740;51.168;4.112;2022-07-29T14:07:22;5.47;;;1.80;;
23142;SDS011;11740;51.168;4.112;2022-07-29T14:09:49;7.35;;;2.20;;
23142;SDS011;11740;51.168;4.112;2022-07-29T14:12:17;4.10;;;1.70;;
23142;SDS011;11740;51.168;4.112;2022-07-29T14:14:45;6.43;;;2.05;;
23142;SDS011;11740;51.168;4.112;2022-07-29T14:17:12;3.25;;;1.70;;
23142;SDS011;11740;51.168;4.112;2022-07-29T14:19:40;3.83;;;1.83;;
23142;SDS011;11740;51.168;4.112;2022-07-29T14:22:08;4.38;;;1.90;;
23142;SDS011;11740;51.168;4.112;2022-07-29T14:24:36;4.38;;;2.10;;
23142;SDS011;11740;51.168;4.112;2022-07-29T14:27:04;3.13;;;1.65;;
23142;SDS011;11740;51.168;4.112;2022-07-29T14:29:32;4.07;;;1.90;;
23142;SDS011;11740;51.168;4.112;2022-07-29T14:32:03;3.40;;;2.10;;
23142;SDS011;11740;51.168;4.112;2022-07-29T14:34:36;7.00;;;2.08;;
23142;SDS011;11740;51.168;4.112;2022-07-29T14:37:05;3.58;;;1.70;;
23142;SDS011;11740;51.168;4.112;2022-07-29T14:39:33;5.13;;;1.63;;
23142;SDS011;11740;51.168;4.112;2022-07-29T14:42:08;2.45;;;1.38;;
23142;SDS011;11740;51.168;4.112;2022-07-29T14:44:38;8.07;;;2.15;;
23142;SDS011;11740;51.168;4.112;2022-07-29T14:47:07;6.85;;;2.35;;
23142;SDS011;11740;51.168;4.112;2022-07-29T14:49:35;3.80;;;2.05;;
23142;SDS011;11740;51.168;4.112;2022-07-29T14:52:02;4.65;;;2.05;;
23142;SDS011;11740;51.168;4.112;2022-07-29T14:54:30;8.68;;;1.90;;
23142;SDS011;11740;51.168;4.112;2022-07-29T14:56:56;4.20;;;1.80;;
23142;SDS011;11740;51.168;4.112;2022-07-29T14:59:24;4.18;;;1.70;;
23142;SDS011;11740;51.168;4.112;2022-07-29T15:01:52;5.32;;;2.05;;
23142;SDS011;11740;51.168;4.112;2022-07-29T15:04:19;6.38;;;1.67;;
23142;SDS011;11740;51.168;4.112;2022-07-29T15:06:47;7.03;;;1.95;;
23142;SDS011;11740;51.168;4.112;2022-07-29T15:09:14;4.05;;;1.70;;
23142;SDS011;11740;51.168;4.112;2022-07-29T15:11:41;5.65;;;1.60;;
23142;SDS011;11740;51.168;4.112;2022-07-29T15:14:08;5.65;;;1.63;;
23142;SDS011;11740;51.168;4.112;2022-07-29T15:16:36;4.72;;;1.55;;
23142;SDS011;11740;51.168;4.112;2022-07-29T15:19:07;3.30;;;1.50;;
23142;SDS011;11740;51.168;4.112;2022-07-29T15:21:34;4.15;;;2.00;;
23142;SDS011;11740;51.168;4.112;2022-07-29T15:24:14;4.97;;;1.52;;
23142;SDS011;11740;51.168;4.112;2022-07-29T15:26:45;2.65;;;1.55;;
23142;SDS011;11740;51.168;4.112;2022-07-29T15:29:13;3.95;;;1.60;;
23142;SDS011;11740;51.168;4.112;2022-07-29T15:31:41;3.97;;;1.60;;
23142;SDS011;11740;51.168;4.112;2022-07-29T15:34:09;6.25;;;2.00;;
23142;SDS011;11740;51.168;4.112;2022-07-29T15:36:36;4.55;;;1.58;;
23142;SDS011;11740;51.168;4.112;2022-07-29T15:39:20;3.05;;;1.50;;
23142;SDS011;11740;51.168;4.112;2022-07-29T15:41:48;3.53;;;1.50;;
23142;SDS011;11740;51.168;4.112;2022-07-29T15:44:16;8.10;;;1.70;;
23142;SDS011;11740;51.168;4.112;2022-07-29T15:46:44;4.80;;;1.85;;
23142;SDS011;11740;51.168;4.112;2022-07-29T15:49:30;7.38;;;1.42;;
23142;SDS011;11740;51.168;4.112;2022-07-29T15:52:14;5.10;;;1.63;;